Terminal Aerodrome Forecast
Issued by NWS

Home | Current Version | Previous Version | Text Only | Print | Product List | Glossary On
Versions: 1 2 3 4 5 6 7 8 9 10 11 12 13 14 15 16 17 18
000
FTUS43 KICT 160500
TAFHUT
TAF
KHUT 160522Z 1606/1706 06005KT P6SM SCT030 BKN060
      TEMPO 1606/1610 BKN030
     FM161200 10006KT P6SM OVC025
     FM161500 16009KT P6SM OVC035=

USA.gov is the U.S. government's official web portal to all federal, state and local government web resources and services.